Time;durP1;ratioP1;P1;durP2;ratioP2;P2;SDS_P1;SDS_P2;PMS_P1;PMS_P2;Temp;Humidity;BMP_temperature;BMP_pressure;BME280_temperature;BME280_humidity;BME280_pressure;Samples;Min_cycle;Max_cycle;Signal;HPM_P1;HPM_P2
2022/03/13 00:00:25;;;;;;;30.05;21.83;;;6.60;68.60;;;;;;5074130;28;20213;-68
2022/03/13 00:02:54;;;;;;;30.38;22.50;;;6.60;68.70;;;;;;5073065;28;20229;-68
2022/03/13 00:05:22;;;;;;;32.10;23.40;;;6.60;68.90;;;;;;5073539;28;20254;-68
2022/03/13 00:07:50;;;;;;;33.05;23.75;;;6.50;69.00;;;;;;5073658;28;20207;-68
2022/03/13 00:10:19;;;;;;;34.83;23.50;;;6.50;69.10;;;;;;5073590;28;20210;-68
2022/03/13 00:12:48;;;;;;;32.22;22.33;;;6.40;69.30;;;;;;5073897;28;20198;-68
2022/03/13 00:15:15;;;;;;;34.30;23.23;;;6.30;69.50;;;;;;5073726;28;20630;-68
2022/03/13 00:17:43;;;;;;;34.33;22.80;;;6.20;69.50;;;;;;5073562;28;20199;-68
2022/03/13 00:20:11;;;;;;;29.65;21.77;;;6.30;69.90;;;;;;5073851;28;20230;-68
2022/03/13 00:22:39;;;;;;;30.25;20.48;;;6.20;69.50;;;;;;5073621;28;20223;-68
2022/03/13 00:25:09;;;;;;;33.13;21.88;;;6.10;69.40;;;;;;5073480;28;20210;-68
2022/03/13 00:27:36;;;;;;;29.55;21.48;;;6.10;69.30;;;;;;5073800;28;20186;-68
2022/03/13 00:30:04;;;;;;;31.77;21.95;;;6.10;69.30;;;;;;5073455;28;20214;-68
2022/03/13 00:32:31;;;;;;;36.58;23.45;;;6.00;69.70;;;;;;5073492;28;20746;-68
2022/03/13 00:34:58;;;;;;;32.20;23.85;;;6.00;70.00;;;;;;5073652;28;20203;-68
2022/03/13 00:37:25;;;;;;;32.85;22.55;;;6.00;70.40;;;;;;5073382;28;20206;-68
2022/03/13 00:39:54;;;;;;;31.48;21.35;;;6.00;69.70;;;;;;5073676;28;20198;-68
2022/03/13 00:42:23;;;;;;;29.25;21.70;;;6.00;69.00;;;;;;5073374;28;20318;-68
2022/03/13 00:44:51;;;;;;;32.40;21.77;;;6.00;68.70;;;;;;5073389;28;20202;-68
2022/03/13 00:47:19;;;;;;;28.35;20.88;;;6.10;69.00;;;;;;5073192;28;20230;-68
2022/03/13 00:49:46;;;;;;;31.65;20.48;;;6.00;69.20;;;;;;5073471;28;20203;-68
2022/03/13 00:52:13;;;;;;;32.03;20.55;;;6.00;69.30;;;;;;5073462;28;20580;-68
2022/03/13 00:54:40;;;;;;;30.75;22.02;;;6.00;69.00;;;;;;5073052;28;20211;-68
2022/03/13 00:57:06;;;;;;;32.20;22.67;;;6.00;69.70;;;;;;5073425;28;20226;-68
2022/03/13 00:59:35;;;;;;;30.77;22.13;;;6.10;70.60;;;;;;5073528;28;20198;-68
2022/03/13 01:02:02;;;;;;;30.70;22.10;;;6.00;71.40;;;;;;5073568;28;20206;-68
2022/03/13 01:04:29;;;;;;;36.22;24.70;;;6.00;71.40;;;;;;5072970;28;20199;-68
2022/03/13 01:06:56;;;;;;;35.25;23.88;;;5.90;72.00;;;;;;5073309;28;20250;-68
2022/03/13 01:09:23;;;;;;;31.45;22.17;;;6.00;72.60;;;;;;5073323;28;20600;-68
2022/03/13 01:11:50;;;;;;;29.75;22.00;;;5.90;71.60;;;;;;5073209;28;20284;-68
2022/03/13 01:14:17;;;;;;;34.28;21.40;;;5.90;70.90;;;;;;5073056;28;20293;-68
2022/03/13 01:16:46;;;;;;;33.00;22.92;;;5.90;71.40;;;;;;5073774;28;20314;-68
2022/03/13 01:19:13;;;;;;;32.65;23.65;;;5.90;72.10;;;;;;5073193;28;20682;-68
2022/03/13 01:21:42;;;;;;;35.13;25.05;;;5.80;72.50;;;;;;5073198;28;20298;-68
2022/03/13 01:24:30;;;;;;;39.97;25.80;;;5.80;73.00;;;;;;5072904;28;20233;-68
2022/03/13 01:27:01;;;;;;;34.88;23.63;;;5.70;73.70;;;;;;5073148;28;20230;-68
2022/03/13 01:29:29;;;;;;;31.90;22.00;;;5.60;73.80;;;;;;5073042;28;20215;-68
2022/03/13 01:31:57;;;;;;;30.73;22.58;;;5.50;73.60;;;;;;5072759;28;20210;-68
2022/03/13 01:34:41;;;;;;;32.28;21.25;;;5.40;72.60;;;;;;5072897;28;20203;-68
2022/03/13 01:37:15;;;;;;;33.72;22.85;;;5.60;72.80;;;;;;5072977;28;20229;-68
2022/03/13 01:39:42;;;;;;;29.85;22.17;;;5.50;73.50;;;;;;5073049;28;20192;-68
2022/03/13 01:42:10;;;;;;;32.78;22.65;;;5.50;74.30;;;;;;5072788;28;20661;-68
2022/03/13 01:44:37;;;;;;;36.33;24.13;;;5.50;74.00;;;;;;5072879;28;20202;-68
2022/03/13 01:47:07;;;;;;;33.95;23.27;;;5.50;74.60;;;;;;5072935;28;20223;-68
2022/03/13 01:49:34;;;;;;;32.67;23.27;;;5.50;74.80;;;;;;5074333;28;20213;-68
2022/03/13 01:52:02;;;;;;;33.65;23.00;;;5.50;74.60;;;;;;5076428;28;20298;-68
2022/03/13 01:54:30;;;;;;;32.95;22.67;;;5.50;74.60;;;;;;5076121;28;20199;-68
2022/03/13 01:56:59;;;;;;;32.00;23.23;;;5.40;74.80;;;;;;5076121;28;20226;-68
2022/03/13 01:59:28;;;;;;;33.70;22.05;;;5.30;75.20;;;;;;5076407;28;20202;-68
2022/03/13 02:01:55;;;;;;;30.63;21.90;;;5.30;75.50;;;;;;5076360;28;20206;-68
2022/03/13 02:04:27;;;;;;;31.55;20.95;;;5.20;75.20;;;;;;5075951;28;20235;-68
2022/03/13 02:06:56;;;;;;;27.80;20.08;;;5.20;73.70;;;;;;5076308;28;20223;-68
2022/03/13 02:09:23;;;;;;;27.00;19.73;;;5.10;73.80;;;;;;5075957;28;20660;-68
2022/03/13 02:11:51;;;;;;;27.45;20.60;;;5.10;73.70;;;;;;5076250;28;20203;-68
2022/03/13 02:14:21;;;;;;;27.30;19.30;;;5.10;73.60;;;;;;5075961;28;20286;-68
2022/03/13 02:16:48;;;;;;;30.10;19.20;;;5.20;73.30;;;;;;5076233;28;20233;-68
2022/03/13 02:19:17;;;;;;;22.75;16.88;;;5.10;73.40;;;;;;5076001;28;20206;-68
2022/03/13 02:21:50;;;;;;;25.95;16.70;;;5.10;71.60;;;;;;5075932;28;20221;-68
2022/03/13 02:24:22;;;;;;;20.63;15.68;;;5.10;71.20;;;;;;5076245;28;20223;-68
2022/03/13 02:26:57;;;;;;;19.88;14.55;;;5.00;70.80;;;;;;5075918;28;20230;-68
2022/03/13 02:29:24;;;;;;;20.08;14.13;;;5.00;69.90;;;;;;5075511;28;20701;-68
2022/03/13 02:31:51;;;;;;;19.92;13.88;;;5.00;69.00;;;;;;5075740;28;20660;-68
2022/03/13 02:34:19;;;;;;;20.65;14.70;;;5.00;68.60;;;;;;5075654;28;20287;-68
2022/03/13 02:37:03;;;;;;;19.30;13.15;;;4.90;70.00;;;;;;5075714;28;20222;-68
2022/03/13 02:39:36;;;;;;;19.67;14.93;;;5.00;69.00;;;;;;5075714;28;20614;-68
2022/03/13 02:42:07;;;;;;;23.02;14.70;;;4.90;68.30;;;;;;5075589;28;20202;-68
2022/03/13 02:44:36;;;;;;;20.05;13.70;;;4.90;67.00;;;;;;5075223;28;20234;-68
2022/03/13 02:47:05;;;;;;;19.63;14.57;;;4.90;67.40;;;;;;5075485;28;20227;-68
2022/03/13 02:49:33;;;;;;;18.38;13.90;;;5.00;65.90;;;;;;5075432;28;20257;-68
2022/03/13 02:52:03;;;;;;;18.95;13.60;;;4.90;65.60;;;;;;5075494;28;20306;-68
2022/03/13 02:54:31;;;;;;;19.35;14.32;;;4.90;66.70;;;;;;5075093;28;20586;-68
2022/03/13 02:56:58;;;;;;;23.02;15.73;;;4.90;67.40;;;;;;5074992;28;20222;-68
2022/03/13 02:59:25;;;;;;;18.83;13.90;;;4.90;68.60;;;;;;5075257;28;20570;-68
2022/03/13 03:01:53;;;;;;;21.98;15.55;;;4.90;69.00;;;;;;5075150;28;20571;-68
2022/03/13 03:04:23;;;;;;;19.30;14.15;;;4.90;68.80;;;;;;5075096;28;20233;-68
2022/03/13 03:06:59;;;;;;;19.20;13.63;;;4.80;67.50;;;;;;5074817;28;20229;-68
2022/03/13 03:09:28;;;;;;;23.40;14.38;;;4.70;66.50;;;;;;5075024;28;20206;-68
2022/03/13 03:11:59;;;;;;;18.73;13.95;;;4.70;65.70;;;;;;5075024;28;20203;-68
2022/03/13 03:14:26;;;;;;;18.95;14.15;;;4.80;66.00;;;;;;5074910;28;20226;-68
2022/03/13 03:16:55;;;;;;;19.90;13.98;;;4.80;65.70;;;;;;5075417;28;20229;-68
2022/03/13 03:19:22;;;;;;;19.20;13.65;;;4.80;65.50;;;;;;5074869;28;20211;-68
2022/03/13 03:21:49;;;;;;;21.10;14.68;;;4.70;66.00;;;;;;5074685;28;20202;-68
2022/03/13 03:24:18;;;;;;;20.55;14.80;;;4.80;66.60;;;;;;5074555;28;20229;-68
2022/03/13 03:26:45;;;;;;;20.83;15.57;;;4.80;66.00;;;;;;5074444;28;20288;-68
2022/03/13 03:29:14;;;;;;;22.63;15.52;;;4.80;66.30;;;;;;5074398;28;20210;-68
2022/03/13 03:31:43;;;;;;;22.42;14.80;;;4.70;65.30;;;;;;5074604;28;20199;-68
2022/03/13 03:34:12;;;;;;;19.70;14.43;;;4.70;66.00;;;;;;5074300;28;20572;-68
2022/03/13 03:36:41;;;;;;;23.83;16.55;;;4.60;66.60;;;;;;5074253;28;20225;-68
2022/03/13 03:39:08;;;;;;;23.63;16.42;;;4.60;66.90;;;;;;5074464;28;20614;-68
2022/03/13 03:41:35;;;;;;;24.90;16.00;;;4.40;67.40;;;;;;5074499;28;20199;-68
2022/03/13 03:44:02;;;;;;;22.80;15.57;;;4.50;67.80;;;;;;5074192;28;20219;-67
2022/03/13 03:46:30;;;;;;;24.15;16.35;;;4.40;67.10;;;;;;5074300;28;20229;-67
2022/03/13 03:48:57;;;;;;;29.05;17.40;;;4.30;67.70;;;;;;5074129;28;20213;-68
2022/03/13 03:51:24;;;;;;;25.33;18.00;;;4.30;68.50;;;;;;5074303;28;20226;-68
2022/03/13 03:53:51;;;;;;;23.75;16.30;;;4.30;69.10;;;;;;5074092;28;20207;-68
2022/03/13 03:56:18;;;;;;;24.55;16.92;;;4.30;69.00;;;;;;5074122;28;20229;-68
2022/03/13 03:58:45;;;;;;;26.35;17.00;;;4.30;69.20;;;;;;5074152;28;20203;-68
2022/03/13 04:01:11;;;;;;;26.67;17.67;;;4.30;69.10;;;;;;5074088;28;20293;-67
2022/03/13 04:03:40;;;;;;;25.00;17.95;;;4.40;69.00;;;;;;5073919;28;20223;-68
2022/03/13 04:06:06;;;;;;;24.50;17.10;;;4.40;69.20;;;;;;5074041;28;20309;-68
2022/03/13 04:08:33;;;;;;;24.35;17.38;;;4.40;68.90;;;;;;5074009;28;20202;-68
2022/03/13 04:11:01;;;;;;;24.40;17.77;;;4.50;69.10;;;;;;5073826;28;20298;-68
2022/03/13 04:13:28;;;;;;;24.67;16.48;;;4.50;69.50;;;;;;5073234;28;20607;-68
2022/03/13 04:15:55;;;;;;;28.05;17.52;;;4.50;70.10;;;;;;5073881;28;20223;-67
2022/03/13 04:18:22;;;;;;;29.08;19.20;;;4.50;70.10;;;;;;5074135;28;20298;-68
2022/03/13 04:20:50;;;;;;;26.15;17.70;;;4.40;69.90;;;;;;5074249;28;20207;-68
2022/03/13 04:23:17;;;;;;;26.50;17.77;;;4.40;70.40;;;;;;5073530;28;20222;-68
2022/03/13 04:25:44;;;;;;;24.35;18.23;;;4.40;70.50;;;;;;5073867;28;20223;-68
2022/03/13 04:28:12;;;;;;;32.95;20.65;;;4.40;70.40;;;;;;5073838;28;20252;-68
2022/03/13 04:30:40;;;;;;;27.90;18.27;;;4.30;71.10;;;;;;5073484;28;20260;-68
2022/03/13 04:33:07;;;;;;;25.17;17.33;;;4.40;71.90;;;;;;5073574;28;20203;-68
2022/03/13 04:35:34;;;;;;;27.40;18.63;;;4.40;71.90;;;;;;5073739;28;20277;-68
2022/03/13 04:38:02;;;;;;;25.00;18.05;;;4.30;72.40;;;;;;5073695;28;20571;-68
2022/03/13 04:40:29;;;;;;;23.42;17.30;;;4.30;72.40;;;;;;5073559;28;20211;-68
2022/03/13 04:42:56;;;;;;;28.35;18.98;;;4.30;72.30;;;;;;5073546;28;20230;-67
2022/03/13 04:45:25;;;;;;;28.27;18.40;;;4.30;72.30;;;;;;5073475;28;20309;-68
2022/03/13 04:47:52;;;;;;;28.92;18.73;;;4.20;72.80;;;;;;5073494;28;20564;-68
2022/03/13 04:50:19;;;;;;;29.52;18.83;;;4.20;73.00;;;;;;5073786;28;20198;-68
2022/03/13 04:52:46;;;;;;;29.30;19.58;;;4.10;73.30;;;;;;5073472;28;20199;-68
2022/03/13 04:55:14;;;;;;;26.33;19.08;;;4.10;73.50;;;;;;5072980;28;20293;-68
2022/03/13 04:57:41;;;;;;;26.63;18.27;;;3.90;74.40;;;;;;5073406;28;20206;-68
2022/03/13 05:00:09;;;;;;;25.65;18.67;;;3.90;75.10;;;;;;5073426;28;20220;-68
2022/03/13 05:02:37;;;;;;;27.73;18.35;;;3.90;74.60;;;;;;5073486;28;20202;-68
2022/03/13 05:05:05;;;;;;;28.55;17.42;;;3.90;74.20;;;;;;5073089;28;20711;-68
2022/03/13 05:07:32;;;;;;;24.38;17.90;;;4.00;74.30;;;;;;5073398;28;20210;-68
2022/03/13 05:09:59;;;;;;;31.08;20.38;;;4.00;74.70;;;;;;5073082;28;20679;-68
2022/03/13 05:12:29;;;;;;;29.90;19.55;;;3.90;74.60;;;;;;5073334;28;20233;-68
2022/03/13 05:14:59;;;;;;;32.03;20.25;;;3.90;74.90;;;;;;5072896;28;20225;-68
2022/03/13 05:17:26;;;;;;;29.65;20.40;;;3.90;74.70;;;;;;5073397;28;20286;-68
2022/03/13 05:19:52;;;;;;;28.45;19.33;;;3.90;74.90;;;;;;5073194;28;20203;-68
2022/03/13 05:22:19;;;;;;;27.52;18.98;;;3.90;75.20;;;;;;5073206;28;20233;-68
2022/03/13 05:24:46;;;;;;;30.48;20.10;;;4.00;75.50;;;;;;5076148;28;20222;-68
2022/03/13 05:27:13;;;;;;;26.92;20.35;;;4.00;75.20;;;;;;5077032;28;20231;-67
2022/03/13 05:29:41;;;;;;;28.75;19.80;;;4.00;75.10;;;;;;5076787;28;20304;-68
2022/03/13 05:32:09;;;;;;;30.38;19.70;;;3.90;76.80;;;;;;5076819;28;20680;-68
2022/03/13 05:34:36;;;;;;;30.58;20.00;;;3.80;77.00;;;;;;5076651;28;20215;-68
2022/03/13 05:37:03;;;;;;;25.98;18.70;;;3.90;77.70;;;;;;5076895;28;20584;-68
2022/03/13 05:39:30;;;;;;;30.70;19.55;;;3.90;77.50;;;;;;5076773;28;20599;-68
2022/03/13 05:41:58;;;;;;;29.65;18.48;;;3.90;77.10;;;;;;5076499;28;20208;-68
2022/03/13 05:44:26;;;;;;;29.40;19.73;;;3.90;77.00;;;;;;5076536;28;20226;-68
2022/03/13 05:46:54;;;;;;;26.77;19.10;;;3.90;77.20;;;;;;5076637;28;20223;-68
2022/03/13 05:49:20;;;;;;;29.60;19.55;;;3.90;78.80;;;;;;5076728;28;20567;-68
2022/03/13 05:51:47;;;;;;;24.98;17.38;;;4.00;78.00;;;;;;5076565;28;20199;-68
2022/03/13 05:54:15;;;;;;;26.67;18.42;;;4.00;78.30;;;;;;5076139;28;20289;-68
2022/03/13 05:56:42;;;;;;;30.15;19.85;;;4.00;78.20;;;;;;5076465;28;20218;-68
2022/03/13 05:59:09;;;;;;;24.30;18.48;;;4.00;78.10;;;;;;5076455;28;20202;-68
2022/03/13 06:01:37;;;;;;;31.75;19.67;;;4.00;78.10;;;;;;5076457;28;20653;-68
2022/03/13 06:04:08;;;;;;;30.67;24.60;;;4.00;78.20;;;;;;5076024;28;20227;-68
2022/03/13 06:06:35;;;;;;;29.52;20.20;;;4.20;78.20;;;;;;5076417;28;20254;-68
2022/03/13 06:09:02;;;;;;;26.23;19.27;;;4.20;78.00;;;;;;5076340;28;20206;-68
2022/03/13 06:11:28;;;;;;;26.73;18.95;;;4.20;78.00;;;;;;5076285;28;20313;-68
2022/03/13 06:13:55;;;;;;;29.58;19.20;;;4.20;78.90;;;;;;5075786;28;20201;-68
2022/03/13 06:16:24;;;;;;;29.35;20.02;;;4.20;79.30;;;;;;5075947;28;20313;-68
2022/03/13 06:18:51;;;;;;;27.50;20.27;;;4.20;79.10;;;;;;5075805;28;20206;-68
2022/03/13 06:21:19;;;;;;;29.95;20.33;;;4.20;79.60;;;;;;5075901;28;20203;-68
2022/03/13 06:23:46;;;;;;;34.00;22.23;;;4.30;79.50;;;;;;5075805;28;20207;-68
2022/03/13 06:26:12;;;;;;;31.77;22.00;;;4.20;79.60;;;;;;5075899;28;20250;-68
2022/03/13 06:28:39;;;;;;;29.58;19.52;;;4.30;79.70;;;;;;5075713;28;20221;-68
2022/03/13 06:31:06;;;;;;;28.48;18.98;;;4.30;79.80;;;;;;5075678;28;20209;-68
2022/03/13 06:33:34;;;;;;;29.55;19.92;;;4.30;81.20;;;;;;5075558;28;20213;-68
2022/03/13 06:36:00;;;;;;;27.58;18.15;;;4.40;81.40;;;;;;5075094;28;20219;-68
2022/03/13 06:38:29;;;;;;;29.00;19.02;;;4.40;81.20;;;;;;5075775;28;20250;-68
2022/03/13 06:40:55;;;;;;;24.98;18.20;;;4.50;81.10;;;;;;5075530;28;20293;-68
2022/03/13 06:43:22;;;;;;;27.45;18.95;;;4.50;81.50;;;;;;5075327;28;20206;-68
2022/03/13 06:45:49;;;;;;;34.80;21.25;;;4.50;81.10;;;;;;5075296;28;20226;-68
2022/03/13 06:48:21;;;;;;;28.75;19.20;;;4.20;81.60;;;;;;5075600;28;20206;-68
2022/03/13 06:50:47;;;;;;;33.38;19.92;;;4.10;83.40;;;;;;5075482;28;20212;-68
2022/03/13 06:53:14;;;;;;;30.88;20.75;;;3.80;84.20;;;;;;5075277;28;20203;-67
2022/03/13 06:55:43;;;;;;;31.65;20.85;;;3.80;85.20;;;;;;5075374;28;20230;-68
2022/03/13 06:58:09;;;;;;;30.75;19.88;;;4.00;84.70;;;;;;5075473;28;20225;-68
2022/03/13 07:00:36;;;;;;;33.97;21.60;;;4.10;84.10;;;;;;5075382;28;20202;-68
2022/03/13 07:03:03;;;;;;;30.42;21.83;;;4.30;83.50;;;;;;5075240;28;20209;-68
2022/03/13 07:05:31;;;;;;;32.35;21.05;;;4.20;82.90;;;;;;5075452;28;20253;-68
2022/03/13 07:07:58;;;;;;;33.78;23.17;;;4.20;83.30;;;;;;5075396;28;20214;-67
2022/03/13 07:10:25;;;;;;;31.70;22.52;;;4.40;83.30;;;;;;5075099;28;20207;-68
2022/03/13 07:12:55;;;;;;;31.23;22.48;;;4.40;83.30;;;;;;5075115;28;20618;-68
2022/03/13 07:15:22;;;;;;;28.92;21.50;;;4.30;83.50;;;;;;5074803;28;20253;-68
2022/03/13 07:17:49;;;;;;;33.50;22.80;;;4.30;84.00;;;;;;5075201;28;20278;-68
2022/03/13 07:20:17;;;;;;;30.17;21.55;;;4.30;84.30;;;;;;5074914;28;20217;-68
2022/03/13 07:22:45;;;;;;;27.77;20.38;;;4.50;84.30;;;;;;5074993;28;20588;-68
2022/03/13 07:25:12;;;;;;;29.60;20.77;;;4.70;83.00;;;;;;5074398;28;20219;-68
2022/03/13 07:27:39;;;;;;;29.55;20.60;;;4.80;81.60;;;;;;5074974;28;20203;-68
2022/03/13 07:30:12;;;;;;;28.05;18.70;;;5.00;80.30;;;;;;5074356;28;20211;-68
2022/03/13 07:32:40;;;;;;;26.05;18.23;;;5.10;78.10;;;;;;5074683;28;20560;-68
2022/03/13 07:35:07;;;;;;;28.40;18.60;;;5.20;77.20;;;;;;5074364;28;20612;-68
2022/03/13 07:37:34;;;;;;;25.45;19.20;;;5.30;76.10;;;;;;5074604;28;20203;-68
2022/03/13 07:40:01;;;;;;;24.10;18.58;;;5.40;75.20;;;;;;5074473;28;20295;-68
2022/03/13 07:42:28;;;;;;;25.40;18.02;;;5.50;75.90;;;;;;5074509;28;20207;-68
2022/03/13 07:44:55;;;;;;;24.98;17.45;;;5.60;74.30;;;;;;5074434;28;20232;-68
2022/03/13 07:47:24;;;;;;;21.90;17.15;;;5.80;74.70;;;;;;5073402;28;20236;-68
2022/03/13 07:49:51;;;;;;;24.95;16.40;;;5.70;71.10;;;;;;5074302;28;20209;-68
2022/03/13 07:52:18;;;;;;;24.45;16.42;;;5.70;70.40;;;;;;5074551;28;20206;-68
2022/03/13 07:54:45;;;;;;;24.23;17.67;;;5.70;72.70;;;;;;5073807;28;20572;-68
2022/03/13 07:57:11;;;;;;;22.63;18.10;;;5.70;71.90;;;;;;5074188;28;20229;-68
2022/03/13 07:59:38;;;;;;;24.63;18.17;;;5.70;72.60;;;;;;5073945;28;20660;-68
2022/03/13 08:02:05;;;;;;;24.38;17.73;;;5.90;72.30;;;;;;5074123;28;20634;-68
2022/03/13 08:04:34;;;;;;;25.23;18.58;;;5.90;72.10;;;;;;5073870;28;20558;-68
2022/03/13 08:07:01;;;;;;;24.60;18.52;;;6.10;72.40;;;;;;5074050;28;20679;-68
2022/03/13 08:09:27;;;;;;;24.35;17.67;;;6.20;72.70;;;;;;5074162;28;20230;-68
2022/03/13 08:11:54;;;;;;;23.80;17.45;;;6.30;71.90;;;;;;5073960;28;20207;-68
2022/03/13 08:14:21;;;;;;;23.70;19.35;;;6.40;72.50;;;;;;5073905;28;20575;-68
2022/03/13 08:16:48;;;;;;;24.58;18.30;;;6.50;70.60;;;;;;5073936;28;20230;-68
2022/03/13 08:19:15;;;;;;;26.13;19.23;;;6.50;68.30;;;;;;5073766;28;20202;-68
2022/03/13 08:21:43;;;;;;;24.63;17.80;;;6.50;69.00;;;;;;5073762;28;20297;-68
2022/03/13 08:24:13;;;;;;;23.60;18.17;;;6.50;70.80;;;;;;5073349;28;20256;-68
2022/03/13 08:26:40;;;;;;;23.00;17.90;;;6.70;70.80;;;;;;5073449;28;20704;-68
2022/03/13 08:29:07;;;;;;;24.17;18.17;;;6.70;70.20;;;;;;5073621;28;20221;-68
2022/03/13 08:31:35;;;;;;;28.08;17.65;;;6.70;69.90;;;;;;5073677;28;20564;-68
2022/03/13 08:34:07;;;;;;;23.95;19.05;;;6.70;68.90;;;;;;5073794;28;20206;-68
2022/03/13 08:36:34;;;;;;;23.02;17.80;;;6.80;68.90;;;;;;5073624;28;20572;-68
2022/03/13 08:39:03;;;;;;;25.20;18.40;;;6.90;67.50;;;;;;5073626;28;20211;-68
2022/03/13 08:41:29;;;;;;;23.88;17.40;;;7.10;67.70;;;;;;5073646;28;20567;-68
2022/03/13 08:43:56;;;;;;;25.75;17.05;;;7.20;67.80;;;;;;5073354;28;20209;-68
2022/03/13 08:46:23;;;;;;;25.33;18.30;;;7.40;66.00;;;;;;5073272;28;20313;-68
2022/03/13 08:48:50;;;;;;;23.08;18.50;;;7.80;65.70;;;;;;5073614;28;20207;-68
2022/03/13 08:51:18;;;;;;;22.42;17.88;;;8.00;64.80;;;;;;5073540;28;20203;-68
2022/03/13 08:53:45;;;;;;;24.92;18.25;;;8.30;63.40;;;;;;5073386;28;20603;-68
2022/03/13 08:56:14;;;;;;;25.80;19.55;;;8.70;62.60;;;;;;5073482;28;20254;-68
2022/03/13 08:58:41;;;;;;;23.67;18.55;;;9.00;60.80;;;;;;5075397;28;20211;-68
2022/03/13 09:01:08;;;;;;;25.92;19.50;;;9.10;60.80;;;;;;5077599;28;20199;-68
2022/03/13 09:03:36;;;;;;;26.10;19.50;;;9.20;61.00;;;;;;5077325;28;20202;-68
2022/03/13 09:06:03;;;;;;;29.98;17.95;;;9.40;60.30;;;;;;5077624;28;20226;-68
2022/03/13 09:08:30;;;;;;;25.30;18.50;;;9.60;60.20;;;;;;5077307;28;20203;-68
2022/03/13 09:10:57;;;;;;;25.08;19.83;;;9.40;62.10;;;;;;5077390;28;20217;-68
2022/03/13 09:13:25;;;;;;;23.67;19.05;;;9.40;61.00;;;;;;5077506;28;20595;-68
2022/03/13 09:15:52;;;;;;;30.60;20.23;;;9.30;61.60;;;;;;5077294;28;20228;-68
2022/03/13 09:18:19;;;;;;;28.38;20.20;;;9.50;61.40;;;;;;5077554;28;20203;-68
2022/03/13 09:20:46;;;;;;;23.50;19.95;;;9.50;61.10;;;;;;5077013;28;20207;-68
2022/03/13 09:23:13;;;;;;;26.40;19.98;;;9.60;62.40;;;;;;5077049;28;20297;-68
2022/03/13 09:25:40;;;;;;;26.73;20.13;;;9.60;60.90;;;;;;5076887;28;20230;-68
2022/03/13 09:28:07;;;;;;;25.10;20.38;;;9.70;61.80;;;;;;5076692;28;20207;-68
2022/03/13 09:30:35;;;;;;;26.08;22.48;;;9.80;62.00;;;;;;5077025;28;20253;-68
2022/03/13 09:33:02;;;;;;;25.73;20.38;;;9.80;61.40;;;;;;5076964;28;20306;-68
2022/03/13 09:35:29;;;;;;;27.63;20.85;;;10.00;59.70;;;;;;5076837;28;20214;-68
2022/03/13 09:37:55;;;;;;;25.85;21.23;;;10.00;59.10;;;;;;5076718;28;20756;-68
2022/03/13 09:40:22;;;;;;;27.58;21.50;;;9.90;59.60;;;;;;5076780;28;20711;-68
2022/03/13 09:42:49;;;;;;;26.35;20.30;;;10.00;59.80;;;;;;5076785;28;20628;-68
2022/03/13 09:45:17;;;;;;;28.08;20.27;;;10.20;59.80;;;;;;5076403;28;20301;-68
2022/03/13 09:47:45;;;;;;;26.15;20.23;;;10.50;59.20;;;;;;5077304;28;20198;-69
2022/03/13 09:50:12;;;;;;;28.70;20.00;;;10.60;59.70;;;;;;5076657;28;20246;-68
2022/03/13 09:52:40;;;;;;;24.30;19.90;;;10.60;60.00;;;;;;5076572;28;20229;-68
2022/03/13 09:55:09;;;;;;;26.73;20.90;;;10.60;59.00;;;;;;5076301;28;20198;-68
2022/03/13 09:57:36;;;;;;;27.80;20.15;;;10.80;59.80;;;;;;5076184;28;20687;-68
2022/03/13 10:00:06;;;;;;;28.02;20.55;;;10.90;59.00;;;;;;5076472;28;20224;-68
2022/03/13 10:02:34;;;;;;;25.73;20.10;;;11.30;59.10;;;;;;5076216;28;20203;-68
2022/03/13 10:05:07;;;;;;;27.35;20.65;;;11.50;58.30;;;;;;5076094;28;20210;-68
2022/03/13 10:07:52;;;;;;;28.95;20.95;;;11.90;58.40;;;;;;5076462;28;20282;-68
2022/03/13 10:10:20;;;;;;;27.67;21.92;;;12.30;56.90;;;;;;5075164;28;20207;-68
2022/03/13 10:12:47;;;;;;;28.30;20.92;;;12.70;56.80;;;;;;5076245;28;20205;-69
2022/03/13 10:15:14;;;;;;;31.95;20.50;;;13.70;55.80;;;;;;5076021;28;20200;-69
2022/03/13 10:17:42;;;;;;;26.73;20.92;;;14.40;53.40;;;;;;5076213;28;20281;-68
2022/03/13 10:20:17;;;;;;;26.35;20.70;;;15.60;52.70;;;;;;5076356;28;20209;-69
2022/03/13 10:22:45;;;;;;;26.40;21.60;;;16.90;49.70;;;;;;5076019;28;20202;-69
2022/03/13 10:25:14;;;;;;;25.47;21.67;;;17.90;47.00;;;;;;5075710;28;20239;-68
2022/03/13 10:27:43;;;;;;;24.93;21.27;;;18.70;45.20;;;;;;5076052;28;20844;-69
2022/03/13 10:30:10;;;;;;;25.17;20.87;;;19.50;43.50;;;;;;5075984;28;20448;-69
2022/03/13 10:32:37;;;;;;;25.20;22.70;;;19.90;42.60;;;;;;5075923;28;20443;-69
2022/03/13 10:35:06;;;;;;;26.07;22.87;;;20.20;40.80;;;;;;5075860;28;20437;-69
2022/03/13 10:37:38;;;;;;;25.20;22.50;;;20.30;40.50;;;;;;5076048;28;21021;-69
2022/03/13 10:40:08;;;;;;;26.33;23.30;;;20.40;39.60;;;;;;5075805;28;20440;-69
2022/03/13 10:42:43;;;;;;;27.70;23.60;;;20.20;39.40;;;;;;5075753;28;20933;-69
2022/03/13 10:45:11;;;;;;;27.13;24.13;;;20.40;39.30;;;;;;5075400;28;20493;-69
2022/03/13 10:47:38;;;;;;;25.10;22.40;;;19.90;39.60;;;;;;5075617;28;20451;-68
2022/03/13 10:50:06;;;;;;;25.63;22.93;;;19.70;40.00;;;;;;5075487;28;20541;-69
2022/03/13 10:52:41;;;;;;;26.07;23.33;;;19.50;40.00;;;;;;5075498;28;20533;-69
2022/03/13 10:55:19;;;;;;;26.20;22.40;;;19.30;40.30;;;;;;5075282;28;20848;-69
2022/03/13 10:57:51;;;;;;;25.52;22.80;;;19.10;40.60;;;;;;5075453;28;20443;-69
2022/03/13 11:00:21;;;;;;;25.63;22.90;;;18.90;40.50;;;;;;5075282;28;20606;-69
2022/03/13 11:02:48;;;;;;;25.58;22.45;;;18.70;40.60;;;;;;5075916;28;20538;-69
2022/03/13 11:05:15;;;;;;;27.70;22.83;;;19.00;40.60;;;;;;5074926;28;20211;-69
2022/03/13 11:07:44;;;;;;;25.50;22.57;;;19.40;39.90;;;;;;5074965;28;20455;-69
2022/03/13 11:10:12;;;;;;;26.60;23.80;;;20.10;39.10;;;;;;5075164;28;20510;-69
2022/03/13 11:12:39;;;;;;;29.77;23.43;;;21.00;38.60;;;;;;5075034;28;20445;-69
2022/03/13 11:15:08;;;;;;;27.30;24.40;;;22.20;38.10;;;;;;5074563;28;20448;-69
2022/03/13 11:17:37;;;;;;;26.27;23.47;;;23.20;35.80;;;;;;5075077;28;20474;-69
2022/03/13 11:20:08;;;;;;;26.70;23.87;;;23.20;35.50;;;;;;5074938;28;20471;-69
2022/03/13 11:22:35;;;;;;;28.50;25.17;;;23.20;35.30;;;;;;5074674;28;20455;-69
2022/03/13 11:25:05;;;;;;;28.67;25.30;;;23.10;34.90;;;;;;5074593;28;20444;-69
2022/03/13 11:27:37;;;;;;;27.43;24.37;;;23.50;34.60;;;;;;5074824;28;20472;-69
2022/03/13 11:30:06;;;;;;;26.23;23.50;;;24.20;34.70;;;;;;5074539;28;20470;-69
2022/03/13 11:32:39;;;;;;;29.10;25.07;;;24.70;34.20;;;;;;5074717;28;20528;-69
2022/03/13 11:35:25;;;;;;;29.33;26.00;;;25.80;33.40;;;;;;5074354;28;20907;-69
2022/03/13 11:37:54;;;;;;;29.93;26.90;;;25.10;32.30;;;;;;5074839;28;20434;-69
2022/03/13 11:40:31;;;;;;;31.93;27.70;;;24.40;32.90;;;;;;5074551;28;20447;-69
2022/03/13 11:43:08;;;;;;;27.23;24.40;;;24.00;33.40;;;;;;5074373;28;20450;-69
2022/03/13 11:45:36;;;;;;;27.17;24.27;;;23.80;34.00;;;;;;5074331;28;20474;-69
2022/03/13 11:48:42;;;;;;;26.97;23.83;;;23.10;34.70;;;;;;5074143;28;20482;-69
2022/03/13 11:51:10;;;;;;;25.90;22.90;;;22.10;33.70;;;;;;5074422;28;20447;-69
2022/03/13 11:53:49;;;;;;;24.40;21.80;;;21.00;35.90;;;;;;5074078;28;20508;-69
2022/03/13 11:56:27;;;;;;;26.90;23.13;;;20.40;36.90;;;;;;5073938;28;21010;-69
2022/03/13 11:58:56;;;;;;;26.20;22.63;;;19.90;37.40;;;;;;5073971;28;20931;-69
2022/03/13 12:01:33;;;;;;;26.60;22.80;;;19.60;38.30;;;;;;5073966;28;20533;-69
2022/03/13 12:04:36;;;;;;;27.63;22.97;;;19.70;38.50;;;;;;5073900;28;20804;-69
2022/03/13 12:07:06;;;;;;;31.00;23.90;;;20.10;37.70;;;;;;5073907;28;21016;-69
2022/03/13 12:09:44;;;;;;;26.67;23.70;;;20.30;37.40;;;;;;5073784;28;20931;-69
2022/03/13 12:12:15;;;;;;;28.30;23.63;;;20.70;37.70;;;;;;5073997;28;20487;-69
2022/03/13 12:15:02;;;;;;;27.53;23.90;;;21.80;36.70;;;;;;5073778;28;20441;-69
2022/03/13 12:17:31;;;;;;;26.40;22.17;;;21.80;36.10;;;;;;5074002;28;20767;-69
2022/03/13 12:19:59;;;;;;;26.97;24.07;;;22.30;35.30;;;;;;5073860;28;20452;-70
2022/03/13 12:22:29;;;;;;;26.90;24.10;;;22.70;34.30;;;;;;5073650;28;20448;-70
2022/03/13 12:24:58;;;;;;;28.83;24.03;;;22.30;34.50;;;;;;5073506;28;21009;-69
2022/03/13 12:27:27;;;;;;;27.10;24.17;;;21.90;35.10;;;;;;5073647;28;20578;-70
2022/03/13 12:29:58;;;;;;;26.53;23.63;;;21.60;35.70;;;;;;5073330;28;20808;-69
2022/03/13 12:32:30;;;;;;;31.30;24.33;;;21.30;35.60;;;;;;5073396;28;20529;-69
2022/03/13 12:34:57;;;;;;;28.63;25.03;;;20.60;36.50;;;;;;5073419;28;20439;-69
2022/03/13 12:37:27;;;;;;;31.23;24.30;;;20.00;36.90;;;;;;5073658;28;20509;-69
2022/03/13 12:39:57;;;;;;;26.30;23.33;;;19.40;37.90;;;;;;5073528;28;20447;-69
2022/03/13 12:42:27;;;;;;;29.13;23.67;;;19.00;38.80;;;;;;5073615;28;20445;-69